Time;durP1;ratioP1;P1;durP2;ratioP2;P2;SDS_P1;SDS_P2;PMS_P1;PMS_P2;Temp;Humidity;BMP_temperature;BMP_pressure;BME280_temperature;BME280_humidity;BME280_pressure;Samples;Min_cycle;Max_cycle;Signal;HPM_P1;HPM_P2
2021/05/16 00:01:48;;;;;;;7.15;6.55;;;10.60;94.60;;;;;;5052274;28;20111;-66
2021/05/16 00:04:14;;;;;;;7.35;6.65;;;10.60;94.40;;;;;;5056934;28;20049;-67
2021/05/16 00:06:39;;;;;;;7.68;6.97;;;10.60;94.40;;;;;;5050226;28;20056;-67
2021/05/16 00:09:08;;;;;;;7.03;6.38;;;10.60;94.40;;;;;;5059936;28;20056;-67
2021/05/16 00:11:33;;;;;;;7.38;6.68;;;10.60;94.40;;;;;;5051410;28;20029;-67
2021/05/16 00:13:59;;;;;;;7.20;6.50;;;10.60;94.30;;;;;;5043878;28;20040;-67
2021/05/16 00:16:24;;;;;;;7.15;6.60;;;10.70;94.40;;;;;;5056621;28;20036;-67
2021/05/16 00:18:50;;;;;;;6.97;6.28;;;10.60;94.20;;;;;;5056290;28;20037;-66
2021/05/16 00:21:16;;;;;;;7.00;6.18;;;10.60;94.10;;;;;;5066875;28;20045;-66
2021/05/16 00:23:41;;;;;;;6.68;6.07;;;10.60;94.10;;;;;;5047285;28;20398;-67
2021/05/16 00:26:08;;;;;;;7.85;7.22;;;10.60;94.00;;;;;;5051011;28;20461;-66
2021/05/16 00:28:34;;;;;;;7.82;7.20;;;10.70;94.10;;;;;;5050692;28;20041;-67
2021/05/16 00:30:59;;;;;;;8.35;7.65;;;10.60;94.00;;;;;;5062965;28;20033;-67
2021/05/16 00:33:25;;;;;;;9.10;8.40;;;10.60;94.10;;;;;;5052093;28;20136;-66
2021/05/16 00:35:51;;;;;;;9.38;8.55;;;10.60;94.00;;;;;;5051168;28;20091;-67
2021/05/16 00:38:17;;;;;;;9.45;8.57;;;10.60;93.90;;;;;;5055536;28;20040;-66
2021/05/16 00:40:42;;;;;;;9.60;8.70;;;10.60;94.00;;;;;;5044410;28;20547;-67
2021/05/16 00:43:08;;;;;;;10.48;9.57;;;10.50;94.20;;;;;;5051900;28;20045;-67
2021/05/16 00:45:34;;;;;;;10.65;9.75;;;10.50;94.30;;;;;;5058279;28;20356;-67
2021/05/16 00:48:05;;;;;;;11.00;10.00;;;10.50;94.30;;;;;;5055086;28;20040;-67
2021/05/16 00:50:51;;;;;;;11.02;10.07;;;10.50;94.20;;;;;;5056515;28;20071;-66
2021/05/16 00:53:21;;;;;;;11.38;10.45;;;10.50;94.30;;;;;;5046192;28;20045;-66
2021/05/16 00:55:49;;;;;;;11.38;10.30;;;10.50;94.30;;;;;;5049843;28;20037;-66
2021/05/16 00:58:15;;;;;;;12.43;11.15;;;10.40;94.40;;;;;;5042139;28;20687;-66
2021/05/16 01:00:41;;;;;;;12.68;11.57;;;10.40;94.40;;;;;;5053081;28;20033;-66
2021/05/16 01:03:08;;;;;;;13.63;12.38;;;10.40;94.40;;;;;;5049711;28;20532;-66
2021/05/16 01:05:35;;;;;;;13.63;12.30;;;10.40;94.50;;;;;;5053793;28;20037;-66
2021/05/16 01:08:04;;;;;;;13.77;12.57;;;10.40;94.70;;;;;;5051548;28;20045;-66
2021/05/16 01:10:30;;;;;;;15.32;13.93;;;10.40;94.40;;;;;;5050762;28;20324;-66
2021/05/16 01:12:57;;;;;;;14.90;13.50;;;10.40;94.80;;;;;;5054589;28;20044;-67
2021/05/16 01:15:25;;;;;;;15.30;13.95;;;10.40;94.70;;;;;;5062072;28;20110;-67
2021/05/16 01:17:51;;;;;;;15.75;14.15;;;10.40;94.80;;;;;;5050680;28;20040;-66
2021/05/16 01:20:28;;;;;;;14.43;13.13;;;10.40;94.70;;;;;;5050560;28;20074;-66
2021/05/16 01:23:08;;;;;;;14.60;13.30;;;10.50;94.70;;;;;;5049787;28;20036;-66
2021/05/16 01:25:40;;;;;;;15.23;13.88;;;10.50;94.80;;;;;;5046497;28;20136;-66
2021/05/16 01:28:07;;;;;;;;;;;10.50;94.60;;;;;;5050579;28;20101;-67
2021/05/16 01:30:33;;;;;;;14.65;13.25;;;10.60;95.00;;;;;;5048645;28;19928;-65
2021/05/16 01:32:59;;;;;;;16.20;14.70;;;10.50;94.50;;;;;;5050563;28;20074;-66
2021/05/16 01:35:25;;;;;;;15.63;14.32;;;10.50;94.60;;;;;;5049449;28;20048;-67
2021/05/16 01:37:51;;;;;;;15.60;14.25;;;10.50;94.40;;;;;;5047228;28;20028;-66
2021/05/16 01:40:19;;;;;;;15.52;14.07;;;10.40;94.30;;;;;;5047762;28;20041;-67
2021/05/16 01:42:49;;;;;;;15.32;13.88;;;10.40;94.60;;;;;;5054476;28;20037;-67
2021/05/16 01:45:17;;;;;;;17.23;15.63;;;10.40;94.70;;;;;;5051173;28;20075;-67
2021/05/16 01:47:43;;;;;;;17.10;15.60;;;10.40;94.80;;;;;;5049369;28;20037;-66
2021/05/16 01:50:17;;;;;;;17.23;15.52;;;10.40;95.00;;;;;;5052433;28;20505;-67
2021/05/16 01:52:46;;;;;;;17.98;16.38;;;10.40;94.80;;;;;;5048784;28;20483;-67
2021/05/16 01:55:12;;;;;;;17.23;15.63;;;10.40;94.80;;;;;;5050141;28;20119;-67
2021/05/16 01:57:39;;;;;;;17.98;16.27;;;10.40;94.90;;;;;;5048553;28;20039;-67
2021/05/16 02:00:09;;;;;;;18.88;17.17;;;10.40;95.00;;;;;;5056521;28;20040;-67
2021/05/16 02:02:36;;;;;;;17.80;16.15;;;10.40;94.80;;;;;;5049834;28;20033;-67
2021/05/16 02:05:02;;;;;;;18.10;16.40;;;10.40;94.80;;;;;;5054108;28;20036;-67
2021/05/16 02:07:28;;;;;;;18.38;16.63;;;10.40;95.00;;;;;;5048287;28;20076;-65
2021/05/16 02:09:54;;;;;;;19.80;17.80;;;10.40;95.00;;;;;;5052237;28;20091;-66
2021/05/16 02:12:22;;;;;;;18.90;17.15;;;10.40;95.10;;;;;;5048742;28;20090;-66
2021/05/16 02:14:47;;;;;;;19.20;17.40;;;10.40;95.30;;;;;;5049665;28;20048;-67
2021/05/16 02:17:14;;;;;;;17.67;16.02;;;10.40;95.10;;;;;;5050546;28;20049;-66
2021/05/16 02:19:40;;;;;;;19.17;17.38;;;10.40;95.00;;;;;;5050914;28;20032;-66
2021/05/16 02:22:07;;;;;;;18.35;16.75;;;10.50;95.20;;;;;;5050441;28;20037;-66
2021/05/16 02:24:33;;;;;;;19.25;17.40;;;10.50;95.00;;;;;;5055704;28;20445;-66
2021/05/16 02:27:00;;;;;;;19.67;17.73;;;10.50;95.00;;;;;;5064364;28;20048;-66
2021/05/16 02:29:28;;;;;;;21.30;19.30;;;10.50;95.00;;;;;;5049965;28;20041;-67
2021/05/16 02:31:54;;;;;;;19.77;17.98;;;10.50;95.10;;;;;;5048736;28;20107;-66
2021/05/16 02:34:21;;;;;;;19.20;17.50;;;10.50;95.10;;;;;;5063519;28;20540;-66
2021/05/16 02:36:46;;;;;;;19.92;18.10;;;10.50;95.10;;;;;;5051378;28;20037;-66
2021/05/16 02:39:12;;;;;;;20.58;18.67;;;10.50;95.20;;;;;;5050972;28;20089;-66
2021/05/16 02:41:38;;;;;;;19.90;17.98;;;10.60;95.30;;;;;;5048262;28;20510;-66
2021/05/16 02:44:04;;;;;;;20.10;18.20;;;10.60;95.30;;;;;;5050066;28;20029;-67
2021/05/16 02:46:30;;;;;;;20.25;18.45;;;10.60;95.10;;;;;;5048771;28;20087;-66
2021/05/16 02:48:56;;;;;;;22.02;19.90;;;10.60;95.60;;;;;;5053859;28;20056;-66
2021/05/16 02:51:21;;;;;;;20.92;18.92;;;10.60;95.40;;;;;;5049749;28;20129;-67
2021/05/16 02:53:47;;;;;;;22.65;20.58;;;10.60;95.10;;;;;;5049708;28;20029;-66
2021/05/16 02:56:15;;;;;;;22.52;20.33;;;10.60;95.10;;;;;;5047617;28;20075;-66
2021/05/16 02:58:42;;;;;;;21.80;19.60;;;10.60;95.00;;;;;;5048753;28;20033;-66
2021/05/16 03:01:08;;;;;;;21.73;19.73;;;10.70;94.90;;;;;;5054537;28;20056;-66
2021/05/16 03:03:34;;;;;;;21.88;19.73;;;10.70;95.20;;;;;;5052499;28;20574;-66
2021/05/16 03:06:00;;;;;;;22.90;20.63;;;10.70;94.50;;;;;;5084181;28;20025;-67
2021/05/16 03:08:26;;;;;;;24.63;22.33;;;10.70;94.70;;;;;;5054551;28;20137;-66
2021/05/16 03:10:52;;;;;;;23.02;20.75;;;10.80;95.10;;;;;;5060092;28;20044;-66
2021/05/16 03:13:18;;;;;;;22.60;20.58;;;10.80;94.90;;;;;;5049136;28;20048;-66
2021/05/16 03:15:43;;;;;;;24.63;22.25;;;10.80;94.80;;;;;;5063285;28;20037;-66
2021/05/16 03:18:10;;;;;;;22.95;20.75;;;10.80;95.00;;;;;;5050866;28;20060;-67
2021/05/16 03:20:36;;;;;;;24.13;21.83;;;10.80;94.80;;;;;;5059353;28;20122;-66
2021/05/16 03:23:02;;;;;;;24.70;22.40;;;10.80;94.50;;;;;;5053493;28;20043;-66
2021/05/16 03:25:28;;;;;;;25.33;22.80;;;10.80;94.90;;;;;;5052324;28;20045;-66
2021/05/16 03:27:54;;;;;;;24.70;22.20;;;10.80;94.80;;;;;;5053909;28;20037;-67
2021/05/16 03:30:20;;;;;;;25.15;22.75;;;10.80;94.70;;;;;;5055745;28;20115;-67
2021/05/16 03:32:46;;;;;;;24.80;22.48;;;10.80;94.50;;;;;;5069541;28;20044;-66
2021/05/16 03:35:13;;;;;;;21.23;19.27;;;10.80;94.50;;;;;;5053212;28;20037;-67
2021/05/16 03:37:39;;;;;;;26.17;23.67;;;10.90;93.80;;;;;;5052350;28;20041;-67
2021/05/16 03:40:06;;;;;;;25.42;23.02;;;10.90;94.30;;;;;;5052970;28;20468;-67
2021/05/16 03:42:33;;;;;;;25.27;22.77;;;10.90;94.00;;;;;;5056238;28;20555;-66
2021/05/16 03:44:59;;;;;;;25.77;23.20;;;10.80;94.40;;;;;;5064872;28;20516;-67
2021/05/16 03:47:25;;;;;;;22.90;20.67;;;10.90;94.60;;;;;;5052468;28;20091;-66
2021/05/16 03:49:51;;;;;;;25.33;22.60;;;10.80;92.90;;;;;;5055701;28;20434;-66
2021/05/16 03:52:19;;;;;;;24.58;22.00;;;10.90;93.00;;;;;;5049781;28;20040;-66
2021/05/16 03:54:47;;;;;;;25.08;22.55;;;10.80;93.70;;;;;;5052085;28;20037;-67
2021/05/16 03:57:14;;;;;;;25.48;22.73;;;10.80;94.10;;;;;;5049973;28;20047;-66
2021/05/16 03:59:39;;;;;;;24.85;22.27;;;10.80;93.90;;;;;;5078853;28;20060;-67
2021/05/16 04:02:05;;;;;;;25.48;22.88;;;10.80;94.30;;;;;;5050481;28;20076;-67
2021/05/16 04:04:31;;;;;;;28.60;24.08;;;10.80;94.90;;;;;;5057547;28;20041;-67
2021/05/16 04:06:56;;;;;;;22.90;20.52;;;10.80;94.30;;;;;;5053207;28;20037;-66
2021/05/16 04:09:22;;;;;;;25.65;22.88;;;10.90;93.80;;;;;;5052567;28;20049;-66
2021/05/16 04:11:48;;;;;;;23.17;20.75;;;10.90;94.10;;;;;;5051993;28;20480;-66
2021/05/16 04:14:16;;;;;;;24.85;21.42;;;10.80;93.10;;;;;;5058460;28;20048;-67
2021/05/16 04:16:41;;;;;;;25.48;22.77;;;10.90;93.40;;;;;;5063279;28;20051;-66
2021/05/16 04:19:07;;;;;;;26.20;22.27;;;10.90;94.10;;;;;;5050948;28;20125;-67
2021/05/16 04:21:32;;;;;;;25.92;22.45;;;10.80;94.20;;;;;;5057223;28;20059;-66
2021/05/16 04:23:58;;;;;;;26.15;23.33;;;10.80;93.60;;;;;;5056745;28;20090;-66
2021/05/16 04:26:24;;;;;;;23.80;21.17;;;10.80;93.80;;;;;;5070887;28;20087;-67
2021/05/16 04:28:49;;;;;;;25.50;22.60;;;10.80;93.20;;;;;;5054949;28;20423;-67
2021/05/16 04:31:15;;;;;;;22.50;20.10;;;10.80;93.90;;;;;;5053096;28;20048;-66
2021/05/16 04:33:41;;;;;;;24.55;21.95;;;10.80;93.70;;;;;;5050806;28;20724;-66
2021/05/16 04:36:06;;;;;;;21.70;18.55;;;10.80;94.20;;;;;;5063572;28;20068;-67
2021/05/16 04:38:32;;;;;;;25.30;19.50;;;10.80;93.70;;;;;;5053927;28;20119;-67
2021/05/16 04:40:58;;;;;;;22.58;19.35;;;10.80;93.50;;;;;;5066947;28;20041;-67
2021/05/16 04:43:23;;;;;;;23.38;18.52;;;10.80;93.10;;;;;;5055925;28;20033;-67
2021/05/16 04:45:49;;;;;;;26.30;20.25;;;10.80;91.60;;;;;;5050374;28;20064;-67
2021/05/16 04:48:15;;;;;;;21.48;17.77;;;10.80;91.50;;;;;;5061012;28;20040;-67
2021/05/16 04:50:41;;;;;;;26.42;20.38;;;10.70;90.80;;;;;;5054544;28;20116;-67
2021/05/16 04:53:06;;;;;;;27.95;20.50;;;10.70;92.30;;;;;;5054015;28;20040;-67
2021/05/16 04:55:32;;;;;;;28.58;21.42;;;10.70;92.40;;;;;;5051614;28;20033;-67
2021/05/16 04:57:58;;;;;;;29.25;22.25;;;10.70;93.20;;;;;;5049204;28;20041;-66
2021/05/16 05:00:24;;;;;;;33.45;23.15;;;10.70;93.20;;;;;;5051547;28;20172;-66
2021/05/16 05:02:50;;;;;;;31.67;22.38;;;10.70;93.90;;;;;;5054402;28;20052;-67
2021/05/16 05:05:16;;;;;;;36.00;24.80;;;10.70;93.50;;;;;;5052265;28;20123;-67
2021/05/16 05:07:42;;;;;;;31.80;23.38;;;10.70;93.80;;;;;;5051936;28;20171;-67
2021/05/16 05:10:09;;;;;;;34.80;24.10;;;10.70;93.80;;;;;;5068564;28;20032;-67
2021/05/16 05:12:35;;;;;;;39.45;24.85;;;10.70;91.60;;;;;;5051962;28;20052;-67
2021/05/16 05:15:01;;;;;;;37.67;24.42;;;10.70;93.60;;;;;;5070078;28;20086;-66
2021/05/16 05:17:27;;;;;;;38.35;25.70;;;10.70;93.50;;;;;;5051452;28;20033;-67
2021/05/16 05:19:52;;;;;;;31.48;23.25;;;10.70;93.90;;;;;;5053357;28;20068;-67
2021/05/16 05:22:18;;;;;;;39.38;26.00;;;10.80;93.30;;;;;;5060144;28;20039;-67
2021/05/16 05:24:43;;;;;;;40.00;27.95;;;10.80;94.40;;;;;;5047287;28;20053;-66
2021/05/16 05:27:09;;;;;;;34.63;24.45;;;10.80;94.60;;;;;;5050796;28;20279;-66
2021/05/16 05:29:35;;;;;;;34.25;25.17;;;10.80;93.80;;;;;;5048960;28;20037;-67
2021/05/16 05:32:07;;;;;;;37.03;27.73;;;10.90;94.40;;;;;;5049639;28;20047;-67
2021/05/16 05:34:33;;;;;;;34.80;26.33;;;10.90;94.60;;;;;;5048797;28;20044;-67
2021/05/16 05:36:59;;;;;;;32.65;25.15;;;10.90;94.80;;;;;;5050309;28;20125;-66
2021/05/16 05:39:24;;;;;;;35.67;26.13;;;10.90;94.50;;;;;;5062509;28;20120;-67
2021/05/16 05:41:50;;;;;;;35.25;24.55;;;11.00;94.10;;;;;;5050004;28;20033;-67
2021/05/16 05:44:16;;;;;;;36.50;24.90;;;11.00;94.30;;;;;;5047725;28;20041;-67
2021/05/16 05:46:42;;;;;;;27.08;22.60;;;11.10;94.40;;;;;;5041445;28;20048;-66
2021/05/16 05:49:08;;;;;;;32.55;24.13;;;11.10;94.30;;;;;;5042165;28;20506;-66
2021/05/16 05:51:34;;;;;;;31.70;23.65;;;11.10;94.60;;;;;;5047756;28;20029;-67
2021/05/16 05:54:00;;;;;;;33.65;23.95;;;11.10;93.90;;;;;;5047535;28;20098;-67
2021/05/16 05:56:25;;;;;;;28.58;22.60;;;11.10;94.40;;;;;;5048983;28;20043;-67
2021/05/16 05:58:51;;;;;;;29.90;22.85;;;11.10;92.70;;;;;;5041330;28;20116;-66
2021/05/16 06:01:17;;;;;;;29.33;23.58;;;11.20;93.70;;;;;;5048559;28;20040;-66
2021/05/16 06:03:45;;;;;;;29.33;23.30;;;11.30;93.90;;;;;;5049131;28;20520;-66
2021/05/16 06:06:11;;;;;;;29.08;20.88;;;11.40;94.10;;;;;;5041879;28;20033;-66
2021/05/16 06:08:38;;;;;;;28.75;22.15;;;11.50;93.40;;;;;;5039380;28;20068;-66
2021/05/16 06:11:04;;;;;;;28.27;21.83;;;11.50;93.40;;;;;;5046216;28;20039;-65
2021/05/16 06:13:30;;;;;;;27.73;21.92;;;11.50;93.20;;;;;;5050096;28;20457;-67
2021/05/16 06:15:56;;;;;;;27.42;21.92;;;11.60;94.10;;;;;;5048166;28;20063;-66
2021/05/16 06:18:23;;;;;;;27.02;20.58;;;11.60;93.40;;;;;;5037038;28;20538;-66
2021/05/16 06:20:50;;;;;;;24.20;20.23;;;11.70;92.20;;;;;;5050043;28;20047;-66
2021/05/16 06:23:17;;;;;;;31.38;22.83;;;11.80;92.60;;;;;;5048821;28;20043;-68
2021/05/16 06:25:43;;;;;;;29.70;22.63;;;11.80;93.50;;;;;;5048414;28;20052;-67
2021/05/16 06:28:09;;;;;;;28.60;20.50;;;11.90;92.50;;;;;;5048162;28;20398;-67
2021/05/16 06:30:35;;;;;;;26.77;20.42;;;11.90;91.80;;;;;;5046993;28;20037;-67
2021/05/16 06:33:00;;;;;;;24.38;19.08;;;12.00;92.60;;;;;;5049643;28;20044;-68
2021/05/16 06:35:26;;;;;;;24.90;19.13;;;12.10;92.70;;;;;;5047504;28;20548;-67
2021/05/16 06:37:52;;;;;;;20.88;18.58;;;12.10;91.70;;;;;;5048673;28;20037;-68
2021/05/16 06:40:17;;;;;;;23.92;17.50;;;12.20;90.20;;;;;;5052156;28;20148;-66
2021/05/16 06:42:43;;;;;;;23.38;18.58;;;12.40;88.60;;;;;;5052032;28;20045;-66
2021/05/16 06:45:11;;;;;;;22.52;18.52;;;12.50;90.00;;;;;;5056418;28;20032;-67
2021/05/16 06:47:37;;;;;;;19.63;16.95;;;12.50;90.60;;;;;;5052713;28;20033;-66
2021/05/16 06:50:07;;;;;;;19.23;16.63;;;12.60;89.80;;;;;;5068537;28;20090;-67
2021/05/16 06:52:33;;;;;;;21.73;16.55;;;12.70;90.10;;;;;;5049518;28;20041;-66
2021/05/16 06:54:59;;;;;;;18.73;16.25;;;12.70;87.50;;;;;;5052169;28;20048;-66
2021/05/16 06:57:25;;;;;;;23.08;18.73;;;12.70;89.90;;;;;;5067070;28;20037;-66
2021/05/16 06:59:51;;;;;;;19.85;16.77;;;12.80;89.90;;;;;;5051491;28;20033;-67
2021/05/16 07:02:16;;;;;;;22.27;17.10;;;12.90;90.70;;;;;;5052316;28;20086;-67
2021/05/16 07:04:43;;;;;;;20.33;16.85;;;12.90;89.20;;;;;;5052582;28;20044;-67
2021/05/16 07:07:09;;;;;;;20.08;15.80;;;12.80;90.10;;;;;;5067676;28;20041;-67
2021/05/16 07:09:35;;;;;;;19.42;17.08;;;12.90;86.90;;;;;;5050151;28;20040;-67
2021/05/16 07:12:00;;;;;;;20.27;16.92;;;12.90;90.20;;;;;;5050123;28;20049;-67
2021/05/16 07:14:26;;;;;;;20.50;16.75;;;12.90;88.80;;;;;;5051481;28;20036;-67
2021/05/16 07:16:52;;;;;;;21.05;17.30;;;13.00;87.00;;;;;;5065250;28;20106;-66
2021/05/16 07:19:20;;;;;;;25.20;20.60;;;13.10;89.00;;;;;;5081952;28;20491;-67
2021/05/16 07:21:46;;;;;;;19.75;16.17;;;13.20;89.80;;;;;;5053314;28;20072;-67
2021/05/16 07:24:12;;;;;;;22.85;16.92;;;13.40;87.50;;;;;;5069488;28;20102;-67
2021/05/16 07:26:37;;;;;;;20.25;16.63;;;13.60;88.60;;;;;;5054277;28;20037;-67
2021/05/16 07:29:06;;;;;;;19.70;14.50;;;13.80;86.80;;;;;;5068195;28;20065;-67
2021/05/16 07:31:31;;;;;;;19.95;15.30;;;13.80;85.70;;;;;;5067200;28;20037;-68
2021/05/16 07:33:57;;;;;;;19.17;13.45;;;13.80;86.90;;;;;;5054345;28;20102;-68
2021/05/16 07:36:23;;;;;;;16.27;12.73;;;13.70;84.30;;;;;;5052715;28;20037;-68
2021/05/16 07:39:08;;;;;;;18.70;13.60;;;13.60;83.00;;;;;;5065180;28;20049;-68
2021/05/16 07:41:34;;;;;;;17.40;12.27;;;13.50;86.50;;;;;;5055230;28;20110;-68
2021/05/16 07:44:00;;;;;;;18.42;13.48;;;13.50;86.30;;;;;;5055104;28;20028;-65
2021/05/16 07:46:26;;;;;;;17.35;11.88;;;13.60;88.30;;;;;;5070714;28;20109;-68
2021/05/16 07:48:51;;;;;;;15.43;12.05;;;13.60;87.10;;;;;;5053782;28;20044;-68
2021/05/16 07:51:17;;;;;;;11.90;9.77;;;13.70;83.50;;;;;;5050880;28;20049;-68
2021/05/16 07:53:43;;;;;;;11.90;9.23;;;13.90;86.20;;;;;;5056221;28;20399;-68
2021/05/16 07:56:10;;;;;;;11.07;8.05;;;14.20;84.60;;;;;;5050512;28;20117;-67
2021/05/16 07:58:36;;;;;;;12.43;7.63;;;14.50;81.50;;;;;;5051721;28;20079;-68
2021/05/16 08:01:02;;;;;;;10.63;7.93;;;14.60;79.50;;;;;;5052836;28;20503;-67
2021/05/16 08:03:28;;;;;;;11.10;8.00;;;14.80;80.50;;;;;;5068171;28;20033;-66
2021/05/16 08:05:54;;;;;;;11.55;8.38;;;14.70;80.10;;;;;;5053841;28;20468;-66
2021/05/16 08:08:20;;;;;;;13.45;8.95;;;14.80;79.00;;;;;;5053046;28;20119;-66
2021/05/16 08:10:46;;;;;;;15.20;9.10;;;14.80;83.50;;;;;;5055132;28;20541;-65
2021/05/16 08:13:12;;;;;;;8.88;6.93;;;14.80;80.50;;;;;;5051611;28;20112;-65
2021/05/16 08:15:38;;;;;;;11.50;7.03;;;14.90;79.70;;;;;;5051638;28;20124;-66
2021/05/16 08:18:05;;;;;;;11.48;6.82;;;15.00;77.60;;;;;;5052305;28;20045;-66
2021/05/16 08:20:32;;;;;;;10.32;6.65;;;14.90;77.50;;;;;;5053960;28;20425;-67
2021/05/16 08:22:57;;;;;;;11.38;7.43;;;14.70;77.60;;;;;;5067563;28;20505;-66
2021/05/16 08:25:23;;;;;;;11.27;7.40;;;14.60;77.60;;;;;;5050744;28;20041;-66
2021/05/16 08:27:51;;;;;;;11.13;6.22;;;14.50;78.90;;;;;;5068500;28;20072;-66
2021/05/16 08:30:17;;;;;;;13.73;6.75;;;14.50;78.60;;;;;;5052820;28;20064;-66
2021/05/16 08:32:44;;;;;;;10.18;5.30;;;14.40;79.00;;;;;;5051492;28;20071;-66
2021/05/16 08:35:10;;;;;;;8.65;5.15;;;14.50;78.50;;;;;;5062350;28;20386;-66
2021/05/16 08:37:35;;;;;;;10.65;4.70;;;14.50;80.00;;;;;;5055056;28;20037;-66
2021/05/16 08:40:02;;;;;;;8.55;4.80;;;14.60;77.60;;;;;;5050175;28;20506;-66
2021/05/16 08:42:29;;;;;;;7.75;4.50;;;14.60;75.70;;;;;;5050395;28;20048;-66
2021/05/16 08:44:55;;;;;;;8.98;5.18;;;14.50;76.90;;;;;;5051150;28;20047;-63
2021/05/16 08:47:23;;;;;;;8.70;4.88;;;14.40;78.40;;;;;;5052101;28;20490;-67
2021/05/16 08:49:50;;;;;;;3.50;2.15;;;14.40;79.30;;;;;;5044829;28;20099;-67
2021/05/16 08:52:15;;;;;;;1.77;1.20;;;14.40;76.50;;;;;;5051227;28;20066;-65
2021/05/16 08:54:42;;;;;;;1.92;1.08;;;14.20;76.80;;;;;;5050958;28;20037;-66
2021/05/16 08:57:07;;;;;;;2.97;1.17;;;13.90;77.00;;;;;;5066996;28;20057;-66
2021/05/16 08:59:33;;;;;;;3.83;1.75;;;13.70;77.60;;;;;;5051698;28;20489;-66
2021/05/16 09:02:00;;;;;;;2.80;1.60;;;13.50;79.70;;;;;;5049798;28;20041;-66
2021/05/16 09:04:32;;;;;;;2.05;1.60;;;13.40;80.60;;;;;;5043652;28;20029;-66
2021/05/16 09:06:58;;;;;;;4.10;1.70;;;13.40;79.60;;;;;;5047933;28;20043;-65
2021/05/16 09:09:39;;;;;;;6.45;2.15;;;13.10;82.80;;;;;;5047613;28;20049;-66
2021/05/16 09:12:14;;;;;;;3.60;2.08;;;13.10;81.40;;;;;;5046441;28;20674;-66
2021/05/16 09:14:50;;;;;;;9.55;2.95;;;13.00;84.30;;;;;;5046956;28;20064;-66
2021/05/16 09:17:33;;;;;;;6.10;2.53;;;12.90;84.20;;;;;;5043926;28;20040;-66
2021/05/16 09:20:08;;;;;;;3.25;2.55;;;12.80;84.80;;;;;;5047445;28;20524;-66
2021/05/16 09:22:45;;;;;;;3.25;2.40;;;12.70;86.00;;;;;;5049396;28;20090;-66
2021/05/16 09:25:23;;;;;;;3.72;2.78;;;12.80;88.00;;;;;;5045780;28;20483;-67
2021/05/16 09:27:55;;;;;;;4.68;2.45;;;12.80;84.50;;;;;;5050441;28;20048;-67
2021/05/16 09:30:23;;;;;;;4.05;2.60;;;12.90;84.40;;;;;;5048345;28;20033;-66
2021/05/16 09:33:12;;;;;;;5.47;2.67;;;13.00;86.30;;;;;;5049296;28;20127;-66
2021/05/16 09:35:55;;;;;;;5.85;2.72;;;13.10;89.30;;;;;;5064687;28;20502;-66
2021/05/16 09:38:22;;;;;;;4.15;3.05;;;13.20;87.00;;;;;;5052888;22;20116;-65
2021/05/16 09:40:49;;;;;;;5.18;3.42;;;13.20;85.40;;;;;;5047132;28;20060;-66
2021/05/16 09:43:20;;;;;;;5.43;3.28;;;13.20;85.60;;;;;;5046684;28;20083;-66
2021/05/16 09:46:07;;;;;;;4.93;3.88;;;13.10;89.80;;;;;;5046817;28;20486;-66
2021/05/16 09:48:36;;;;;;;5.07;3.10;;;13.20;86.40;;;;;;5059621;28;20071;-66
2021/05/16 09:51:06;;;;;;;6.75;4.47;;;13.30;84.60;;;;;;5046277;28;20065;-67
2021/05/16 09:53:32;;;;;;;5.25;4.32;;;13.50;83.50;;;;;;5045724;28;20033;-67
2021/05/16 09:56:19;;;;;;;8.48;3.33;;;14.10;80.10;;;;;;5047495;28;20075;-67
2021/05/16 09:58:45;;;;;;;7.22;4.00;;;14.50;78.10;;;;;;5045541;28;20044;-67
2021/05/16 10:01:14;;;;;;;6.25;3.63;;;14.80;78.60;;;;;;5046368;28;20060;-67
2021/05/16 10:03:40;;;;;;;4.28;2.92;;;15.00;77.10;;;;;;5042762;28;20040;-66
2021/05/16 10:06:06;;;;;;;7.70;3.83;;;15.30;77.00;;;;;;5043838;28;20124;-65
2021/05/16 10:08:32;;;;;;;6.13;3.58;;;15.60;77.30;;;;;;5047976;28;22191;-66
2021/05/16 10:10:58;;;;;;;6.30;3.50;;;15.80;76.60;;;;;;5048307;28;20094;-66
2021/05/16 10:13:28;;;;;;;3.67;3.00;;;15.90;75.10;;;;;;5037579;28;20080;-66
2021/05/16 10:15:55;;;;;;;4.82;3.42;;;15.80;75.80;;;;;;5051631;28;20195;-66
2021/05/16 10:18:24;;;;;;;3.17;2.83;;;15.80;75.80;;;;;;5052045;28;20478;-66
2021/05/16 10:20:50;;;;;;;3.35;2.85;;;15.60;75.60;;;;;;5049642;28;20091;-66
2021/05/16 10:23:34;;;;;;;2.75;2.55;;;15.60;75.70;;;;;;5049356;28;20128;-66
2021/05/16 10:26:15;;;;;;;3.70;3.03;;;15.50;76.10;;;;;;5049969;28;20037;-67
2021/05/16 10:28:56;;;;;;;5.10;2.90;;;15.60;76.80;;;;;;5048499;28;20048;-67
2021/05/16 10:31:48;;;;;;;5.13;2.80;;;15.70;75.20;;;;;;5048147;28;20041;-67
2021/05/16 10:34:32;;;;;;;3.92;2.40;;;15.70;73.60;;;;;;5033977;28;20037;-66
2021/05/16 10:37:03;;;;;;;4.32;2.67;;;15.70;73.00;;;;;;5049531;28;20091;-66
2021/05/16 10:39:44;;;;;;;2.22;1.65;;;15.50;74.50;;;;;;5048690;28;20053;-66
2021/05/16 10:42:14;;;;;;;2.33;2.13;;;15.20;76.60;;;;;;5049555;28;20396;-66
2021/05/16 10:45:08;;;;;;;3.20;1.83;;;15.00;76.70;;;;;;5041353;28;20037;-66
2021/05/16 10:47:43;;;;;;;3.80;2.28;;;14.80;78.90;;;;;;5042639;28;20091;-66
2021/05/16 10:50:30;;;;;;;3.05;1.77;;;14.70;79.00;;;;;;5030639;28;20052;-67
2021/05/16 10:53:09;;;;;;;2.58;1.85;;;14.70;78.60;;;;;;5048892;28;20029;-67
2021/05/16 10:55:39;;;;;;;3.58;1.80;;;14.40;82.50;;;;;;5059145;28;20044;-67
2021/05/16 10:58:06;;;;;;;3.97;1.83;;;14.40;81.50;;;;;;5047435;28;20124;-67
2021/05/16 11:00:40;;;;;;;3.17;1.73;;;14.30;82.20;;;;;;5046074;28;20041;-66
2021/05/16 11:03:07;;;;;;;2.50;1.30;;;14.30;82.60;;;;;;5042965;28;20071;-67
2021/05/16 11:05:50;;;;;;;2.50;1.05;;;14.30;83.50;;;;;;5045172;28;20441;-67
2021/05/16 11:08:15;;;;;;;3.70;1.30;;;14.40;83.10;;;;;;5048716;28;20513;-67
2021/05/16 11:10:52;;;;;;;2.55;1.10;;;14.40;83.80;;;;;;5049438;28;20037;-67
2021/05/16 11:13:27;;;;;;;2.75;1.60;;;14.50;81.60;;;;;;5047193;28;20040;-66
2021/05/16 11:16:07;;;;;;;2.15;1.42;;;14.60;81.00;;;;;;5046846;28;20060;-66
2021/05/16 11:18:34;;;;;;;3.15;1.30;;;14.70;82.20;;;;;;5046676;28;20063;-66
2021/05/16 11:21:06;;;;;;;3.28;1.42;;;14.80;80.40;;;;;;5065336;28;20631;-65
2021/05/16 11:23:39;;;;;;;1.63;1.00;;;14.90;80.60;;;;;;5047639;28;20470;-67
2021/05/16 11:26:06;;;;;;;2.28;1.10;;;14.90;78.90;;;;;;5052253;28;20085;-67
2021/05/16 11:28:36;;;;;;;3.55;1.40;;;14.90;78.70;;;;;;5052394;28;20029;-67
2021/05/16 11:31:10;;;;;;;2.67;1.40;;;14.90;77.10;;;;;;5067159;28;20048;-66
2021/05/16 11:33:37;;;;;;;2.65;1.60;;;14.70;78.80;;;;;;5045751;28;20087;-67
2021/05/16 11:36:05;;;;;;;2.88;1.10;;;14.50;79.00;;;;;;5050343;28;20247;-67
2021/05/16 11:38:33;;;;;;;1.95;1.10;;;14.20;79.40;;;;;;5051601;28;20064;-67
2021/05/16 11:40:58;;;;;;;3.05;1.10;;;14.00;81.00;;;;;;5050036;28;20128;-67
2021/05/16 11:43:36;;;;;;;1.88;0.90;;;13.80;80.40;;;;;;5047527;28;20115;-66
2021/05/16 11:46:03;;;;;;;2.95;1.13;;;13.60;81.60;;;;;;5052563;28;20037;-67
2021/05/16 11:48:32;;;;;;;3.45;1.08;;;13.50;82.90;;;;;;5065804;28;20409;-66
2021/05/16 11:51:08;;;;;;;3.28;1.25;;;13.50;84.00;;;;;;5052597;28;20483;-67
2021/05/16 11:53:38;;;;;;;2.58;0.98;;;13.70;85.30;;;;;;5051868;28;20486;-67
2021/05/16 11:56:13;;;;;;;2.20;1.20;;;14.10;81.60;;;;;;5052673;28;20048;-67
2021/05/16 11:58:56;;;;;;;1.90;0.75;;;14.60;81.80;;;;;;5045885;28;20048;-67
2021/05/16 12:01:24;;;;;;;3.05;1.00;;;15.10;78.90;;;;;;5052063;28;20037;-66
2021/05/16 12:04:17;;;;;;;3.15;1.40;;;15.70;75.10;;;;;;5048028;28;20106;-66
2021/05/16 12:06:51;;;;;;;2.20;0.90;;;16.00;73.80;;;;;;5047880;28;20033;-67
2021/05/16 12:09:26;;;;;;;1.73;0.90;;;15.90;75.30;;;;;;5052174;28;20049;-67
2021/05/16 12:11:53;;;;;;;2.92;2.20;;;16.00;73.50;;;;;;5052048;28;20119;-67
2021/05/16 12:14:24;;;;;;;2.78;1.67;;;16.20;75.80;;;;;;5051132;28;20034;-67
2021/05/16 12:16:52;;;;;;;3.83;1.40;;;16.30;71.40;;;;;;5042765;28;20098;-66
2021/05/16 12:19:20;;;;;;;2.40;1.00;;;16.30;74.10;;;;;;5051598;28;20071;-67
2021/05/16 12:21:50;;;;;;;1.90;1.08;;;16.40;72.20;;;;;;5052045;28;20333;-67
2021/05/16 12:24:20;;;;;;;1.95;0.95;;;16.50;70.30;;;;;;5052139;28;20106;-67
2021/05/16 12:26:46;;;;;;;0.98;0.70;;;16.60;69.20;;;;;;5051370;28;20102;-67
2021/05/16 12:29:14;;;;;;;2.78;1.10;;;16.60;70.20;;;;;;5050740;28;20472;-66
2021/05/16 12:31:40;;;;;;;2.75;1.05;;;16.50;68.90;;;;;;5049661;28;20071;-67
2021/05/16 12:34:07;;;;;;;3.47;1.08;;;16.60;68.40;;;;;;5051704;28;20040;-66
2021/05/16 12:36:59;;;;;;;1.40;0.75;;;16.70;68.30;;;;;;5050901;28;20033;-66
2021/05/16 12:39:40;;;;;;;3.00;0.90;;;16.60;68.50;;;;;;5051368;28;20057;-66
2021/05/16 12:42:30;;;;;;;2.10;1.20;;;16.70;67.90;;;;;;5051389;28;20410;-66